Time,TemperatureF,DewpointF,PressureIn,WindDirection,WindDirectionDegrees,WindSpeedMPH,WindSpeedGustMPH,Humidity,HourlyPrecipIn,Conditions,Clouds,dailyrainin,SoftwareType,DateUTC
2013-09-03 00:00:00,71.8,65.6,0.00,SW,222,1.8,1.8,81,0.00,,,0.16,VWS V15.00,2013-09-03 04:00:00,
2013-09-03 00:01:00,71.2,65.8,0.00,WNW,283,1.8,1.8,83,0.00,,,0.00,VWS V14.01,2013-09-03 04:01:00,
2013-09-03 00:02:00,71.2,66.2,0.00,West,280,1.8,1.8,84,0.00,,,0.00,VWS V14.01,2013-09-03 04:02:00,
2013-09-03 00:07:00,71.2,66.2,0.00,West,277,1.8,1.8,84,0.00,,,0.00,VWS V14.01,2013-09-03 04:07:00,
2013-09-03 00:12:00,71.2,66.2,0.00,West,278,1.8,1.8,84,0.00,,,0.00,VWS V14.01,2013-09-03 04:12:00,
2013-09-03 00:17:00,71.2,66.2,0.00,SW,232,1.8,1.8,84,0.00,,,0.00,VWS V14.01,2013-09-03 04:17:00,
2013-09-03 00:22:00,71.2,66.5,0.00,SW,232,1.8,1.8,85,0.00,,,0.00,VWS V14.01,2013-09-03 04:22:00,
2013-09-03 00:27:00,71.2,66.5,0.00,WNW,288,1.8,1.8,85,0.00,,,0.00,VWS V14.01,2013-09-03 04:27:00,
2013-09-03 00:32:00,71.2,66.5,0.00,WNW,288,1.8,1.8,85,0.00,,,0.00,VWS V14.01,2013-09-03 04:32:00,
2013-09-03 00:37:00,71.2,66.5,0.00,WNW,287,1.8,1.8,85,0.00,,,0.00,VWS V14.01,2013-09-03 04:37:00,
2013-09-03 00:42:00,71.2,66.5,0.00,WNW,283,1.8,4.0,85,0.00,,,0.00,VWS V14.01,2013-09-03 04:42:00,
2013-09-03 00:47:00,71.2,66.8,0.00,WNW,287,1.8,4.0,86,0.00,,,0.00,VWS V14.01,2013-09-03 04:47:00,
2013-09-03 00:52:00,71.2,66.8,0.00,WNW,284,1.8,4.0,86,0.00,,,0.00,VWS V14.01,2013-09-03 04:52:00,
2013-09-03 00:57:00,71.2,66.8,0.00,WNW,285,1.8,4.0,86,0.00,,,0.00,VWS V14.01,2013-09-03 04:57:00,
2013-09-03 01:00:00,71.2,65.8,0.00,WNW,284,1.8,4.4,83,0.00,,,0.00,VWS V15.00,2013-09-03 05:00:00,
2013-09-03 01:02:00,71.2,66.8,0.00,WNW,283,1.8,4.4,86,0.00,,,0.00,VWS V14.01,2013-09-03 05:02:00,
2013-09-03 01:07:00,71.2,67.2,0.00,WNW,293,1.8,4.4,87,0.00,,,0.00,VWS V14.01,2013-09-03 05:07:00,
2013-09-03 01:12:00,71.2,67.2,0.00,WNW,287,1.8,4.4,87,0.00,,,0.00,VWS V14.01,2013-09-03 05:12:00,
2013-09-03 01:17:00,71.2,67.2,0.00,WNW,294,1.8,4.4,87,0.00,,,0.00,VWS V14.01,2013-09-03 05:17:00,
2013-09-03 01:22:00,71.2,67.2,0.00,WNW,285,1.8,4.4,87,0.00,,,0.00,VWS V14.01,2013-09-03 05:22:00,
2013-09-03 01:27:00,71.1,67.3,0.00,West,276,1.8,4.4,88,0.00,,,0.00,VWS V14.01,2013-09-03 05:27:00,
2013-09-03 01:32:00,71.1,67.3,0.00,West,275,1.8,4.4,88,0.00,,,0.00,VWS V14.01,2013-09-03 05:32:00,
2013-09-03 01:37:00,70.9,67.2,0.00,WNW,287,1.8,4.9,88,0.00,,,0.00,VWS V14.01,2013-09-03 05:37:00,
2013-09-03 01:42:00,70.9,67.2,0.00,West,277,1.8,4.9,88,0.00,,,0.00,VWS V14.01,2013-09-03 05:42:00,
2013-09-03 01:47:00,70.9,67.2,0.00,WNW,286,1.8,4.9,88,0.00,,,0.00,VWS V14.01,2013-09-03 05:47:00,
2013-09-03 01:52:00,70.7,67.0,0.00,WNW,289,1.8,4.9,88,0.00,,,0.00,VWS V14.01,2013-09-03 05:52:00,
2013-09-03 01:57:00,70.7,67.0,0.00,West,281,1.8,4.9,88,0.00,,,0.00,VWS V14.01,2013-09-03 05:57:00,
2013-09-03 02:00:00,71.2,66.8,0.00,WNW,286,1.8,4.4,86,0.00,,,0.00,VWS V15.00,2013-09-03 06:00:00,
2013-09-03 02:02:00,70.7,67.0,0.00,West,279,1.8,1.8,88,0.00,,,0.00,VWS V14.01,2013-09-03 06:02:00,
2013-09-03 02:07:00,70.5,66.8,0.00,WNW,282,1.8,1.8,88,0.00,,,0.00,VWS V14.01,2013-09-03 06:07:00,
2013-09-03 02:12:00,70.5,66.8,0.00,WNW,285,1.8,1.8,88,0.00,,,0.00,VWS V14.01,2013-09-03 06:12:00,
2013-09-03 02:17:00,70.5,66.8,0.00,WNW,285,1.8,1.8,88,0.00,,,0.00,VWS V14.01,2013-09-03 06:17:00,
2013-09-03 02:22:00,70.3,66.9,0.00,West,278,1.8,1.8,89,0.00,,,0.00,VWS V14.01,2013-09-03 06:22:00,
2013-09-03 02:27:00,70.3,66.9,0.00,West,278,1.8,1.8,89,0.00,,,0.00,VWS V14.01,2013-09-03 06:27:00,
2013-09-03 02:32:00,70.5,67.1,0.00,West,278,1.8,1.8,89,0.00,,,0.00,VWS V14.01,2013-09-03 06:32:00,
2013-09-03 02:37:00,70.5,67.1,0.00,NW,311,1.8,1.8,89,0.00,,,0.00,VWS V14.01,2013-09-03 06:37:00,
2013-09-03 02:42:00,70.5,67.1,0.00,WSW,247,1.8,1.8,89,0.00,,,0.00,VWS V14.01,2013-09-03 06:42:00,
2013-09-03 02:47:00,70.5,67.1,0.00,West,266,1.8,1.8,89,0.00,,,0.00,VWS V14.01,2013-09-03 06:47:00,
2013-09-03 02:52:00,70.5,67.1,0.00,West,276,1.8,1.8,89,0.00,,,0.00,VWS V14.01,2013-09-03 06:52:00,
2013-09-03 02:57:00,70.5,67.1,0.00,WNW,291,1.8,1.8,89,0.00,,,0.00,VWS V14.01,2013-09-03 06:57:00,
2013-09-03 03:00:00,70.7,67.0,0.00,West,267,1.8,4.9,88,0.00,,,0.00,VWS V15.00,2013-09-03 07:00:00,
2013-09-03 03:02:00,70.5,67.4,0.00,West,280,1.8,1.8,90,0.00,,,0.00,VWS V14.01,2013-09-03 07:02:00,
2013-09-03 03:07:00,70.5,67.4,0.00,WSW,239,1.8,1.8,90,0.00,,,0.00,VWS V14.01,2013-09-03 07:07:00,
2013-09-03 03:12:00,70.5,67.4,0.00,NW,304,1.8,1.8,90,0.00,,,0.00,VWS V14.01,2013-09-03 07:12:00,
2013-09-03 03:17:00,70.7,67.6,0.00,West,280,1.8,1.8,90,0.00,,,0.00,VWS V14.01,2013-09-03 07:17:00,
2013-09-03 03:22:00,70.7,67.6,0.00,WNW,290,1.8,1.8,90,0.00,,,0.00,VWS V14.01,2013-09-03 07:22:00,
2013-09-03 03:27:00,70.5,67.4,0.00,West,265,1.8,1.8,90,0.00,,,0.00,VWS V14.01,2013-09-03 07:27:00,
2013-09-03 03:32:00,70.5,67.4,0.00,WNW,287,1.8,1.8,90,0.00,,,0.00,VWS V14.01,2013-09-03 07:32:00,
2013-09-03 03:37:00,70.5,67.4,0.00,WSW,256,1.8,1.8,90,0.00,,,0.00,VWS V14.01,2013-09-03 07:37:00,
2013-09-03 03:42:00,70.5,67.4,0.00,West,268,1.8,1.8,90,0.00,,,0.00,VWS V14.01,2013-09-03 07:42:00,
2013-09-03 03:47:00,70.2,67.1,0.00,West,271,1.8,1.8,90,0.00,,,0.00,VWS V14.01,2013-09-03 07:47:00,
2013-09-03 03:52:00,70.2,67.1,0.00,West,277,1.8,1.8,90,0.00,,,0.00,VWS V14.01,2013-09-03 07:52:00,
2013-09-03 03:57:00,70.2,67.4,0.00,WNW,283,1.8,4.0,91,0.00,,,0.00,VWS V14.01,2013-09-03 07:57:00,
2013-09-03 04:00:00,70.5,67.4,0.00,WNW,288,1.8,1.8,90,0.00,,,0.00,VWS V15.00,2013-09-03 08:00:00,
2013-09-03 04:02:00,70.0,67.2,0.00,West,278,1.8,1.8,91,0.00,,,0.00,VWS V14.01,2013-09-03 08:02:00,
2013-09-03 04:07:00,70.0,67.2,0.00,WSW,258,1.8,1.8,91,0.00,,,0.00,VWS V14.01,2013-09-03 08:07:00,
2013-09-03 04:12:00,69.8,67.1,0.00,WSW,237,1.8,1.8,91,0.00,,,0.00,VWS V14.01,2013-09-03 08:12:00,
2013-09-03 04:17:00,69.8,67.1,0.00,SW,217,1.8,1.8,91,0.00,,,0.00,VWS V14.01,2013-09-03 08:17:00,
2013-09-03 04:22:00,69.6,66.9,0.00,SW,229,1.8,1.8,91,0.00,,,0.00,VWS V14.01,2013-09-03 08:22:00,
2013-09-03 04:27:00,69.6,66.9,0.00,SW,233,1.8,1.8,91,0.00,,,0.00,VWS V14.01,2013-09-03 08:27:00,
2013-09-03 04:32:00,69.8,67.1,0.00,West,274,1.8,1.8,91,0.00,,,0.00,VWS V14.01,2013-09-03 08:32:00,
2013-09-03 04:37:00,69.8,67.1,0.00,WSW,243,1.8,1.8,91,0.00,,,0.00,VWS V14.01,2013-09-03 08:37:00,
2013-09-03 04:42:00,69.8,67.1,0.00,WSW,241,1.8,1.8,91,0.00,,,0.00,VWS V14.01,2013-09-03 08:42:00,
2013-09-03 04:47:00,69.8,67.1,0.00,West,281,1.8,1.8,91,0.00,,,0.00,VWS V14.01,2013-09-03 08:47:00,
2013-09-03 04:52:00,69.8,67.1,0.00,WSW,237,1.8,1.8,91,0.00,,,0.00,VWS V14.01,2013-09-03 08:52:00,
2013-09-03 04:57:00,69.6,67.2,0.00,WSW,249,1.8,1.8,92,0.00,,,0.00,VWS V14.01,2013-09-03 08:57:00,
2013-09-03 05:00:00,70.0,67.2,0.00,West,277,1.8,4.0,91,0.00,,,0.00,VWS V15.00,2013-09-03 09:00:00,
2013-09-03 05:02:00,69.6,67.2,0.00,SW,230,1.8,1.8,92,0.00,,,0.00,VWS V14.01,2013-09-03 09:02:00,
2013-09-03 05:07:00,69.6,67.2,0.00,SW,228,1.8,1.8,92,0.00,,,0.00,VWS V14.01,2013-09-03 09:07:00,
2013-09-03 05:12:00,69.6,67.2,0.00,SW,216,1.8,1.8,92,0.00,,,0.00,VWS V14.01,2013-09-03 09:12:00,
2013-09-03 05:17:00,69.6,67.2,0.00,WSW,245,1.8,1.8,92,0.00,,,0.00,VWS V14.01,2013-09-03 09:17:00,
2013-09-03 05:22:00,69.8,67.4,0.00,SW,222,1.8,1.8,92,0.00,,,0.00,VWS V14.01,2013-09-03 09:22:00,
2013-09-03 05:27:00,69.8,67.4,0.00,West,277,1.8,1.8,92,0.00,,,0.00,VWS V14.01,2013-09-03 09:27:00,
2013-09-03 05:32:00,69.8,67.4,0.00,West,281,1.8,1.8,92,0.00,,,0.00,VWS V14.01,2013-09-03 09:32:00,
2013-09-03 05:37:00,69.8,67.4,0.00,WNW,290,1.8,1.8,92,0.00,,,0.00,VWS V14.01,2013-09-03 09:37:00,
2013-09-03 05:42:00,69.8,67.4,0.00,WNW,287,1.8,1.8,92,0.00,,,0.00,VWS V14.01,2013-09-03 09:42:00,
2013-09-03 05:47:00,69.8,67.7,0.00,WNW,283,1.8,1.8,93,0.00,,,0.00,VWS V14.01,2013-09-03 09:47:00,
2013-09-03 05:52:00,70.0,67.9,0.00,WNW,294,1.8,1.8,93,0.00,,,0.00,VWS V14.01,2013-09-03 09:52:00,
2013-09-03 05:57:00,70.0,67.9,0.00,WNW,303,1.8,1.8,93,0.00,,,0.00,VWS V14.01,2013-09-03 09:57:00,
2013-09-03 06:00:00,69.6,67.2,0.00,SW,220,1.8,1.8,92,0.00,,,0.00,VWS V15.00,2013-09-03 10:00:00,
2013-09-03 06:02:00,70.0,67.9,0.00,WNW,288,1.8,1.8,93,0.00,,,0.00,VWS V14.01,2013-09-03 10:02:00,
2013-09-03 06:07:00,70.2,68.4,0.00,WNW,286,1.8,1.8,94,0.00,,,0.00,VWS V14.01,2013-09-03 10:07:00,
2013-09-03 06:12:00,70.2,68.4,0.00,WNW,299,1.8,1.8,94,0.00,,,0.00,VWS V14.01,2013-09-03 10:12:00,
2013-09-03 06:17:00,70.3,68.5,0.00,WNW,288,1.8,1.8,94,0.00,,,0.00,VWS V14.01,2013-09-03 10:17:00,
2013-09-03 06:22:00,70.3,68.5,0.00,WNW,288,1.8,1.8,94,0.00,,,0.00,VWS V14.01,2013-09-03 10:22:00,
2013-09-03 06:27:00,70.3,68.5,0.00,WNW,290,1.8,1.8,94,0.00,,,0.00,VWS V14.01,2013-09-03 10:27:00,
2013-09-03 06:32:00,70.3,68.5,0.00,WNW,289,1.8,1.8,94,0.00,,,0.00,VWS V14.01,2013-09-03 10:32:00,
2013-09-03 06:37:00,70.3,68.5,0.00,WNW,285,1.8,1.8,94,0.00,,,0.00,VWS V14.01,2013-09-03 10:37:00,
2013-09-03 06:42:00,70.3,68.5,0.00,WNW,285,1.8,1.8,94,0.00,,,0.00,VWS V14.01,2013-09-03 10:42:00,
2013-09-03 06:47:00,70.3,68.5,0.00,WNW,285,1.8,1.8,94,0.00,,,0.00,VWS V14.01,2013-09-03 10:47:00,
2013-09-03 06:52:00,70.3,68.5,0.00,WNW,285,1.8,1.8,94,0.00,,,0.00,VWS V14.01,2013-09-03 10:52:00,
2013-09-03 06:57:00,70.3,68.8,0.00,WNW,284,1.8,1.8,95,0.00,,,0.00,VWS V14.01,2013-09-03 10:57:00,
2013-09-03 07:00:00,70.0,67.9,0.00,WNW,294,1.8,1.8,93,0.00,,,0.00,VWS V15.00,2013-09-03 11:00:00,
2013-09-03 07:02:00,70.3,68.8,0.00,WNW,283,1.8,1.8,95,0.00,,,0.00,VWS V14.01,2013-09-03 11:02:00,
2013-09-03 07:07:00,70.3,68.8,0.00,WNW,284,1.8,1.8,95,0.00,,,0.00,VWS V14.01,2013-09-03 11:07:00,
2013-09-03 07:12:00,70.3,68.8,0.00,WNW,284,1.8,1.8,95,0.00,,,0.00,VWS V14.01,2013-09-03 11:12:00,
2013-09-03 07:17:00,70.5,69.0,0.00,WNW,284,1.8,1.8,95,0.00,,,0.00,VWS V14.01,2013-09-03 11:17:00,
2013-09-03 07:22:00,70.5,69.0,0.00,WNW,284,1.8,1.8,95,0.00,,,0.00,VWS V14.01,2013-09-03 11:22:00,
2013-09-03 07:27:00,70.7,69.2,0.00,WNW,284,1.8,1.8,95,0.00,,,0.00,VWS V14.01,2013-09-03 11:27:00,
2013-09-03 07:32:00,70.7,69.2,0.00,WNW,282,1.8,1.8,95,0.00,,,0.00,VWS V14.01,2013-09-03 11:32:00,
2013-09-03 07:37:00,70.7,69.2,0.00,WNW,282,1.8,1.8,95,0.00,,,0.00,VWS V14.01,2013-09-03 11:37:00,
2013-09-03 07:42:00,70.9,69.4,0.00,WNW,282,1.8,1.8,95,0.00,,,0.00,VWS V14.01,2013-09-03 11:42:00,
2013-09-03 07:47:00,71.1,69.6,0.00,WNW,282,1.8,1.8,95,0.00,,,0.00,VWS V14.01,2013-09-03 11:47:00,
2013-09-03 07:52:00,71.1,69.6,0.00,WNW,282,1.8,1.8,95,0.00,,,0.00,VWS V14.01,2013-09-03 11:52:00,
2013-09-03 07:57:00,71.2,69.7,0.00,WNW,282,1.8,1.8,95,0.00,,,0.00,VWS V14.01,2013-09-03 11:57:00,
2013-09-03 08:00:00,70.3,68.8,0.00,WNW,283,1.8,1.8,95,0.00,,,0.00,VWS V15.00,2013-09-03 12:00:00,
2013-09-03 08:02:00,71.2,69.7,0.00,WNW,282,1.8,1.8,95,0.00,,,0.00,VWS V14.01,2013-09-03 12:02:00,
2013-09-03 08:07:00,71.4,69.9,0.00,West,279,1.8,1.8,95,0.00,,,0.00,VWS V14.01,2013-09-03 12:07:00,
2013-09-03 08:12:00,71.6,69.8,0.00,West,279,1.8,1.8,94,0.00,,,0.00,VWS V14.01,2013-09-03 12:12:00,
2013-09-03 08:17:00,71.6,69.8,0.00,West,277,1.8,1.8,94,0.00,,,0.00,VWS V14.01,2013-09-03 12:17:00,
2013-09-03 08:22:00,71.8,70.0,0.00,SW,233,1.8,1.8,94,0.00,,,0.00,VWS V14.01,2013-09-03 12:22:00,
2013-09-03 08:27:00,71.6,69.8,0.00,SW,229,1.8,1.8,94,0.00,,,0.00,VWS V14.01,2013-09-03 12:27:00,
2013-09-03 08:32:00,71.8,70.0,0.00,SW,214,1.8,1.8,94,0.00,,,0.00,VWS V14.01,2013-09-03 12:32:00,
2013-09-03 08:37:00,71.8,70.0,0.00,SW,234,1.8,1.8,94,0.00,,,0.00,VWS V14.01,2013-09-03 12:37:00,
2013-09-03 08:42:00,71.8,70.0,0.00,SSW,199,1.8,1.8,94,0.00,,,0.00,VWS V14.01,2013-09-03 12:42:00,
2013-09-03 08:47:00,71.8,70.0,0.00,SSW,199,1.8,1.8,94,0.00,,,0.00,VWS V14.01,2013-09-03 12:47:00,
2013-09-03 08:52:00,72.0,70.1,0.00,SSW,211,1.8,1.8,94,0.00,,,0.00,VWS V14.01,2013-09-03 12:52:00,
2013-09-03 08:57:00,72.0,70.1,0.00,West,278,1.8,1.8,94,0.00,,,0.00,VWS V14.01,2013-09-03 12:57:00,
2013-09-03 09:00:00,71.2,69.7,0.00,WNW,282,1.8,1.8,95,0.00,,,0.00,VWS V15.00,2013-09-03 13:00:00,
2013-09-03 09:02:00,72.0,69.8,0.00,West,278,1.8,1.8,93,0.00,,,0.00,VWS V14.01,2013-09-03 13:02:00,
2013-09-03 09:07:00,72.1,70.0,0.00,West,278,1.8,1.8,93,0.00,,,0.00,VWS V14.01,2013-09-03 13:07:00,
2013-09-03 09:12:00,72.3,70.2,0.00,WSW,255,1.8,1.8,93,0.00,,,0.00,VWS V14.01,2013-09-03 13:12:00,
2013-09-03 09:17:00,72.3,70.2,0.00,West,269,1.8,1.8,93,0.00,,,0.00,VWS V14.01,2013-09-03 13:17:00,
2013-09-03 09:22:00,72.5,70.4,0.00,SW,216,1.8,1.8,93,0.00,,,0.00,VWS V14.01,2013-09-03 13:22:00,
2013-09-03 09:27:00,72.9,71.0,0.00,WSW,252,1.8,1.8,94,0.00,,,0.00,VWS V14.01,2013-09-03 13:27:00,
2013-09-03 09:32:00,73.0,70.9,0.00,WSW,252,1.8,1.8,93,0.00,,,0.00,VWS V14.01,2013-09-03 13:32:00,
2013-09-03 09:37:00,73.0,70.9,0.00,SW,218,1.8,1.8,93,0.00,,,0.00,VWS V14.01,2013-09-03 13:37:00,
2013-09-03 09:42:00,72.9,70.7,0.00,WSW,258,1.8,1.8,93,0.00,,,0.00,VWS V14.01,2013-09-03 13:42:00,
2013-09-03 09:47:00,72.7,70.2,0.00,SW,235,1.8,1.8,92,0.00,,,0.00,VWS V14.01,2013-09-03 13:47:00,
2013-09-03 09:52:00,72.7,70.2,0.00,SSW,196,1.8,1.8,92,0.00,,,0.00,VWS V14.01,2013-09-03 13:52:00,
2013-09-03 09:57:00,73.0,70.9,0.00,SW,229,1.8,1.8,93,0.00,,,0.00,VWS V14.01,2013-09-03 13:57:00,
2013-09-03 10:00:00,72.0,69.8,0.00,West,278,1.8,1.8,93,0.00,,,0.00,VWS V15.00,2013-09-03 14:00:00,
2013-09-03 10:02:00,73.2,71.1,0.00,WSW,246,1.8,1.8,93,0.00,,,0.00,VWS V14.01,2013-09-03 14:02:00,
2013-09-03 10:07:00,73.4,70.9,0.00,South,173,1.8,1.8,92,0.00,,,0.00,VWS V14.01,2013-09-03 14:07:00,
2013-09-03 10:12:00,73.6,71.1,0.00,SW,224,1.8,1.8,92,0.00,,,0.00,VWS V14.01,2013-09-03 14:12:00,
2013-09-03 10:17:00,74.1,71.7,0.00,SW,220,1.8,1.8,92,0.00,,,0.00,VWS V14.01,2013-09-03 14:17:00,
2013-09-03 10:22:00,74.5,72.0,0.00,West,265,1.8,1.8,92,0.00,,,0.00,VWS V14.01,2013-09-03 14:22:00,
2013-09-03 10:27:00,74.7,71.9,0.00,SW,227,1.8,1.8,91,0.00,,,0.00,VWS V14.01,2013-09-03 14:27:00,
2013-09-03 10:32:00,74.7,71.9,0.00,WSW,240,1.8,1.8,91,0.00,,,0.00,VWS V14.01,2013-09-03 14:32:00,
2013-09-03 10:37:00,74.7,71.9,0.00,SW,220,1.8,1.8,91,0.00,,,0.00,VWS V14.01,2013-09-03 14:37:00,
2013-09-03 10:42:00,74.5,71.4,0.00,South,179,1.8,1.8,90,0.00,,,0.00,VWS V14.01,2013-09-03 14:42:00,
2013-09-03 10:47:00,74.3,71.2,0.00,West,264,1.8,1.8,90,0.00,,,0.00,VWS V14.01,2013-09-03 14:47:00,
2013-09-03 10:52:00,73.9,70.8,0.00,WNW,290,1.8,1.8,90,0.00,,,0.00,VWS V14.01,2013-09-03 14:52:00,
2013-09-03 10:57:00,74.1,71.0,0.00,SSW,195,1.8,1.8,90,0.00,,,0.00,VWS V14.01,2013-09-03 14:57:00,
2013-09-03 11:00:00,73.2,71.1,0.00,SW,227,1.8,1.8,93,0.00,,,0.00,VWS V15.00,2013-09-03 15:00:00,
2013-09-03 11:02:00,74.7,71.5,0.00,WNW,290,1.8,1.8,90,0.00,,,0.00,VWS V14.01,2013-09-03 15:02:00,
2013-09-03 11:07:00,74.8,71.7,0.00,SW,225,1.8,1.8,90,0.00,,,0.00,VWS V14.01,2013-09-03 15:07:00,
2013-09-03 11:12:00,74.8,71.4,0.00,SW,230,1.8,1.8,89,0.00,,,0.00,VWS V14.01,2013-09-03 15:12:00,
2013-09-03 11:17:00,74.7,71.2,0.00,West,267,1.8,1.8,89,0.00,,,0.00,VWS V14.01,2013-09-03 15:17:00,
2013-09-03 11:22:00,75.0,71.6,0.00,WSW,255,1.8,1.8,89,0.00,,,0.00,VWS V14.01,2013-09-03 15:22:00,
2013-09-03 11:27:00,75.0,71.6,0.00,SSW,211,1.8,1.8,89,0.00,,,0.00,VWS V14.01,2013-09-03 15:27:00,
2013-09-03 11:32:00,74.8,71.1,0.00,WSW,250,1.8,4.0,88,0.00,,,0.00,VWS V14.01,2013-09-03 15:32:00,
2013-09-03 11:37:00,74.7,70.5,0.00,WSW,242,1.8,4.0,87,0.00,,,0.00,VWS V14.01,2013-09-03 15:37:00,
2013-09-03 11:42:00,74.7,70.5,0.00,SW,225,1.8,4.0,87,0.00,,,0.00,VWS V14.01,2013-09-03 15:42:00,
2013-09-03 11:47:00,74.7,70.2,0.00,SW,223,1.8,4.0,86,0.00,,,0.00,VWS V14.01,2013-09-03 15:47:00,
2013-09-03 11:52:00,74.8,70.4,0.00,SW,231,1.8,4.0,86,0.00,,,0.00,VWS V14.01,2013-09-03 15:52:00,
2013-09-03 11:57:00,75.7,71.3,0.00,WSW,246,1.8,4.0,86,0.00,,,0.00,VWS V14.01,2013-09-03 15:57:00,
2013-09-03 12:00:00,74.5,71.4,0.00,South,174,1.8,1.8,90,0.00,,,0.00,VWS V15.00,2013-09-03 16:00:00,
2013-09-03 12:02:00,76.1,70.9,0.00,West,271,1.8,1.8,84,0.00,,,0.00,VWS V14.01,2013-09-03 16:02:00,
2013-09-03 12:07:00,76.8,71.6,0.00,WSW,256,1.8,1.8,84,0.00,,,0.00,VWS V14.01,2013-09-03 16:07:00,
2013-09-03 12:12:00,77.5,72.0,0.00,West,270,1.8,1.8,83,0.00,,,0.00,VWS V14.01,2013-09-03 16:12:00,
2013-09-03 12:17:00,77.4,70.0,0.00,SSW,203,1.8,1.8,78,0.00,,,0.00,VWS V14.01,2013-09-03 16:17:00,
2013-09-03 12:22:00,77.5,68.6,0.00,SW,231,1.8,1.8,74,0.00,,,0.00,VWS V14.01,2013-09-03 16:22:00,
2013-09-03 12:27:00,77.0,66.1,0.00,West,274,1.8,1.8,69,0.00,,,0.00,VWS V14.01,2013-09-03 16:27:00,
2013-09-03 12:32:00,76.5,63.4,0.00,WNW,292,1.8,1.8,64,0.00,,,0.00,VWS V14.01,2013-09-03 16:32:00,
2013-09-03 12:37:00,75.7,62.3,0.00,WNW,291,1.8,1.8,63,0.00,,,0.00,VWS V14.01,2013-09-03 16:37:00,
2013-09-03 12:42:00,75.2,62.2,0.00,WNW,303,1.8,1.8,64,0.00,,,0.00,VWS V14.01,2013-09-03 16:42:00,
2013-09-03 12:47:00,74.8,62.3,0.00,WNW,288,1.8,1.8,65,0.00,,,0.00,VWS V14.01,2013-09-03 16:47:00,
2013-09-03 12:52:00,75.2,62.6,0.00,WNW,289,1.8,1.8,65,0.00,,,0.00,VWS V14.01,2013-09-03 16:52:00,
2013-09-03 12:57:00,75.2,63.1,0.00,West,277,1.8,1.8,66,0.00,,,0.00,VWS V14.01,2013-09-03 16:57:00,
2013-09-03 13:00:00,76.1,71.3,0.00,WNW,302,1.8,4.0,85,0.00,,,0.00,VWS V15.00,2013-09-03 17:00:00,
2013-09-03 13:02:00,74.8,62.7,0.00,WNW,295,1.8,1.8,66,0.00,,,0.00,VWS V14.01,2013-09-03 17:02:00,
2013-09-03 13:07:00,74.5,62.4,0.00,West,271,1.8,1.8,66,0.00,,,0.00,VWS V14.01,2013-09-03 17:07:00,
2013-09-03 13:12:00,74.7,63.0,0.00,WSW,250,1.8,1.8,67,0.00,,,0.00,VWS V14.01,2013-09-03 17:12:00,
2013-09-03 13:17:00,75.0,63.3,0.00,West,259,1.8,1.8,67,0.00,,,0.00,VWS V14.01,2013-09-03 17:17:00,
2013-09-03 13:22:00,75.2,63.5,0.00,WNW,292,1.8,1.8,67,0.00,,,0.00,VWS V14.01,2013-09-03 17:22:00,
2013-09-03 13:27:00,75.7,64.0,0.00,SW,221,1.8,1.8,67,0.00,,,0.00,VWS V14.01,2013-09-03 17:27:00,
2013-09-03 13:32:00,76.1,64.4,0.00,WSW,249,1.8,1.8,67,0.00,,,0.00,VWS V14.01,2013-09-03 17:32:00,
2013-09-03 13:37:00,76.3,64.5,0.00,WSW,240,1.8,1.8,67,0.00,,,0.00,VWS V14.01,2013-09-03 17:37:00,
2013-09-03 13:42:00,76.5,64.7,0.00,SW,214,1.8,1.8,67,0.00,,,0.00,VWS V14.01,2013-09-03 17:42:00,
2013-09-03 13:47:00,76.5,64.7,0.00,WSW,247,1.8,1.8,67,0.00,,,0.00,VWS V14.01,2013-09-03 17:47:00,
2013-09-03 13:52:00,76.6,64.4,0.00,South,175,1.8,1.8,66,0.00,,,0.00,VWS V14.01,2013-09-03 17:52:00,
2013-09-03 13:57:00,77.4,65.1,0.00,SW,228,1.8,6.2,66,0.00,,,0.00,VWS V14.01,2013-09-03 17:57:00,
2013-09-03 14:00:00,75.0,62.9,0.00,WNW,288,1.8,1.8,66,0.00,,,0.00,VWS V15.00,2013-09-03 18:00:00,
2013-09-03 14:02:00,78.1,65.4,0.00,SW,214,4.4,7.1,65,0.00,,,0.00,VWS V14.01,2013-09-03 18:02:00,
2013-09-03 14:07:00,77.9,64.8,0.00,West,263,1.8,8.0,64,0.00,,,0.00,VWS V14.01,2013-09-03 18:07:00,
2013-09-03 14:12:00,77.4,63.8,0.00,WSW,250,1.8,8.0,63,0.00,,,0.00,VWS V14.01,2013-09-03 18:12:00,
2013-09-03 14:17:00,76.6,62.2,0.00,WNW,283,1.8,8.0,61,0.00,,,0.00,VWS V14.01,2013-09-03 18:17:00,
2013-09-03 14:22:00,76.1,62.2,0.00,SSW,213,1.8,8.0,62,0.00,,,0.00,VWS V14.01,2013-09-03 18:22:00,
2013-09-03 14:27:00,76.1,62.2,0.00,South,186,1.8,8.0,62,0.00,,,0.00,VWS V14.01,2013-09-03 18:27:00,
2013-09-03 14:32:00,75.9,62.4,0.00,SSW,206,1.8,8.0,63,0.00,,,0.00,VWS V14.01,2013-09-03 18:32:00,
2013-09-03 14:37:00,75.7,62.7,0.00,SSW,197,1.8,8.0,64,0.00,,,0.00,VWS V14.01,2013-09-03 18:37:00,
2013-09-03 14:42:00,75.6,62.5,0.00,WNW,295,1.8,8.0,64,0.00,,,0.00,VWS V14.01,2013-09-03 18:42:00,
2013-09-03 14:47:00,75.2,62.2,0.00,WSW,244,1.8,8.0,64,0.00,,,0.00,VWS V14.01,2013-09-03 18:47:00,
2013-09-03 14:52:00,75.0,62.9,0.00,South,178,1.8,8.0,66,0.00,,,0.00,VWS V14.01,2013-09-03 18:52:00,
2013-09-03 14:57:00,75.0,62.9,0.00,West,262,1.8,8.0,66,0.00,,,0.00,VWS V14.01,2013-09-03 18:57:00,
2013-09-03 15:00:00,77.9,65.6,0.00,SW,216,1.8,7.6,66,0.00,,,0.00,VWS V15.00,2013-09-03 19:00:00,
2013-09-03 15:02:00,74.8,63.2,0.00,West,279,1.8,1.8,67,0.00,,,0.00,VWS V14.01,2013-09-03 19:02:00,
2013-09-03 15:06:00,74.5,62.8,0.00,SW,234,1.8,1.8,67,0.00,,,0.00,VWS V14.01,2013-09-03 19:06:00,
2013-09-03 15:11:00,74.1,62.9,0.00,SSW,192,1.8,1.8,68,0.00,,,0.00,VWS V14.01,2013-09-03 19:11:00,
2013-09-03 15:16:00,73.9,62.7,0.00,West,262,1.8,1.8,68,0.00,,,0.00,VWS V14.01,2013-09-03 19:16:00,
2013-09-03 15:21:00,73.9,63.1,0.00,West,271,1.8,1.8,69,0.00,,,0.00,VWS V14.01,2013-09-03 19:21:00,
2013-09-03 15:26:00,73.8,63.0,0.00,WSW,244,1.8,1.8,69,0.00,,,0.00,VWS V14.01,2013-09-03 19:26:00,
2013-09-03 15:31:00,73.6,63.2,0.00,SSW,206,1.8,1.8,70,0.00,,,0.00,VWS V14.01,2013-09-03 19:31:00,
2013-09-03 15:36:00,73.4,63.0,0.00,South,185,1.8,1.8,70,0.00,,,0.00,VWS V14.01,2013-09-03 19:36:00,
2013-09-03 15:41:00,73.4,63.0,0.00,NNW,345,1.8,1.8,70,0.00,,,0.00,VWS V14.01,2013-09-03 19:41:00,
2013-09-03 15:46:00,73.2,63.3,0.00,SW,231,1.8,1.8,71,0.00,,,0.00,VWS V14.01,2013-09-03 19:46:00,
2013-09-03 15:52:00,73.0,63.1,0.00,WNW,290,1.8,1.8,71,0.00,,,0.00,VWS V14.01,2013-09-03 19:52:00,
2013-09-03 15:57:00,72.9,63.3,0.00,WSW,246,1.8,1.8,72,0.00,,,0.00,VWS V14.01,2013-09-03 19:57:00,
2013-09-03 16:00:00,75.0,63.3,0.00,WNW,292,1.8,8.0,67,0.00,,,0.00,VWS V15.00,2013-09-03 20:00:00,
2013-09-03 16:02:00,72.9,63.3,0.00,West,281,1.8,1.8,72,0.00,,,0.00,VWS V14.01,2013-09-03 20:02:00,
2013-09-03 16:07:00,72.7,63.5,0.00,NW,304,4.0,4.0,73,0.00,,,0.00,VWS V14.01,2013-09-03 20:07:00,
2013-09-03 16:12:00,72.3,63.6,0.00,NW,306,1.8,9.8,74,0.00,,,0.00,VWS V14.01,2013-09-03 20:12:00,
2013-09-03 16:17:00,71.4,62.7,0.00,West,274,1.8,9.8,74,0.00,,,0.00,VWS V14.01,2013-09-03 20:17:00,
2013-09-03 16:22:00,69.4,59.6,0.00,WNW,291,1.8,9.8,71,0.00,,,0.00,VWS V14.01,2013-09-03 20:22:00,
2013-09-03 16:27:00,68.2,58.8,0.00,NW,317,1.8,9.8,72,0.00,,,0.00,VWS V14.01,2013-09-03 20:27:00,
2013-09-03 16:32:00,67.8,59.6,0.00,ENE,65,1.8,9.8,75,0.00,,,0.00,VWS V14.01,2013-09-03 20:32:00,
2013-09-03 16:37:00,67.6,59.8,0.00,East,96,1.8,9.8,76,0.00,,,0.00,VWS V14.01,2013-09-03 20:37:00,
2013-09-03 16:42:00,67.5,60.0,0.00,NNW,341,1.8,9.8,77,0.00,,,0.00,VWS V14.01,2013-09-03 20:42:00,
2013-09-03 16:47:00,67.5,60.0,0.00,ENE,68,1.8,9.8,77,0.00,,,0.00,VWS V14.01,2013-09-03 20:47:00,
2013-09-03 16:52:00,67.5,60.0,0.00,ENE,74,1.8,9.8,77,0.00,,,0.00,VWS V14.01,2013-09-03 20:52:00,
2013-09-03 16:57:00,67.5,60.4,0.00,ENE,63,1.8,9.8,78,0.00,,,0.00,VWS V14.01,2013-09-03 20:57:00,
2013-09-03 17:00:00,72.9,63.3,0.00,WNW,297,1.8,1.8,72,0.00,,,0.00,VWS V15.00,2013-09-03 21:00:00,
2013-09-03 17:02:00,67.5,60.4,0.00,East,89,1.8,1.8,78,0.00,,,0.00,VWS V14.01,2013-09-03 21:02:00,
2013-09-03 17:07:00,67.5,60.4,0.00,NNW,340,1.8,1.8,78,0.00,,,0.00,VWS V14.01,2013-09-03 21:07:00,
2013-09-03 17:12:00,67.5,60.7,0.00,West,280,1.8,4.0,79,0.00,,,0.00,VWS V14.01,2013-09-03 21:12:00,
2013-09-03 17:17:00,67.6,60.9,0.00,WNW,286,1.8,4.0,79,0.00,,,0.00,VWS V14.01,2013-09-03 21:17:00,
2013-09-03 17:22:00,68.0,61.6,0.00,West,272,1.8,4.4,80,0.00,,,0.00,VWS V14.01,2013-09-03 21:22:00,
2013-09-03 17:27:00,68.0,62.0,0.00,West,266,1.8,4.4,81,0.00,,,0.00,VWS V14.01,2013-09-03 21:27:00,
2013-09-03 17:32:00,68.0,62.0,0.00,South,169,1.8,4.4,81,0.00,,,0.00,VWS V14.01,2013-09-03 21:32:00,
2013-09-03 17:37:00,68.0,62.0,0.00,West,280,1.8,4.4,81,0.00,,,0.00,VWS V14.01,2013-09-03 21:37:00,
2013-09-03 17:42:00,68.0,62.0,0.00,West,280,1.8,4.4,81,0.00,,,0.00,VWS V14.01,2013-09-03 21:42:00,
2013-09-03 17:47:00,67.8,62.1,0.00,ESE,106,1.8,4.4,82,0.00,,,0.00,VWS V14.01,2013-09-03 21:47:00,
2013-09-03 17:52:00,67.8,62.1,0.00,South,188,1.8,4.4,82,0.00,,,0.00,VWS V14.01,2013-09-03 21:52:00,
2013-09-03 17:57:00,67.8,62.1,0.00,WNW,303,1.8,4.4,82,0.00,,,0.00,VWS V14.01,2013-09-03 21:57:00,
2013-09-03 18:00:00,67.5,60.4,0.00,ENE,63,1.8,9.8,78,0.00,,,0.00,VWS V15.00,2013-09-03 22:00:00,
2013-09-03 18:02:00,68.0,62.7,0.00,SE,142,1.8,1.8,83,0.00,,,0.00,VWS V14.01,2013-09-03 22:02:00,
2013-09-03 18:07:00,68.0,62.7,0.00,SE,135,1.8,1.8,83,0.00,,,0.00,VWS V14.01,2013-09-03 22:07:00,
2013-09-03 18:12:00,68.0,62.7,0.00,SE,135,1.8,1.8,83,0.00,,,0.00,VWS V14.01,2013-09-03 22:12:00,
2013-09-03 18:17:00,68.2,62.8,0.00,SE,135,1.8,1.8,83,0.00,,,0.00,VWS V14.01,2013-09-03 22:17:00,
2013-09-03 18:22:00,68.2,62.8,0.00,SE,135,1.8,1.8,83,0.00,,,0.00,VWS V14.01,2013-09-03 22:22:00,
2013-09-03 18:27:00,68.0,62.7,0.00,West,261,1.8,1.8,83,0.00,,,0.00,VWS V14.01,2013-09-03 22:27:00,
2013-09-03 18:32:00,68.0,62.7,0.00,West,261,1.8,1.8,83,0.00,,,0.00,VWS V14.01,2013-09-03 22:32:00,
2013-09-03 18:37:00,68.0,62.7,0.00,West,261,1.8,1.8,83,0.00,,,0.00,VWS V14.01,2013-09-03 22:37:00,
2013-09-03 18:42:00,68.0,62.7,0.00,West,261,1.8,1.8,83,0.00,,,0.00,VWS V14.01,2013-09-03 22:42:00,
2013-09-03 18:47:00,68.0,63.0,0.00,West,261,1.8,1.8,84,0.00,,,0.00,VWS V14.01,2013-09-03 22:47:00,
2013-09-03 18:52:00,68.0,63.0,0.00,West,261,1.8,1.8,84,0.00,,,0.00,VWS V14.01,2013-09-03 22:52:00,
2013-09-03 18:57:00,68.0,63.0,0.00,SW,226,1.8,1.8,84,0.00,,,0.00,VWS V14.01,2013-09-03 22:57:00,
2013-09-03 19:00:00,67.8,62.1,0.00,North,3,1.8,4.4,82,0.00,,,0.00,VWS V15.00,2013-09-03 23:00:00,
2013-09-03 19:02:00,68.0,63.0,0.00,WSW,258,1.8,1.8,84,0.00,,,0.00,VWS V14.01,2013-09-03 23:02:00,
2013-09-03 19:06:00,68.0,63.0,0.00,WNW,287,1.8,1.8,84,0.00,,,0.00,VWS V14.01,2013-09-03 23:06:00,
2013-09-03 19:11:00,68.2,63.2,0.00,SW,231,1.8,1.8,84,0.00,,,0.00,VWS V14.01,2013-09-03 23:11:00,
2013-09-03 19:16:00,68.2,63.2,0.00,SW,227,1.8,1.8,84,0.00,,,0.00,VWS V14.01,2013-09-03 23:16:00,
2013-09-03 19:21:00,68.2,63.5,0.00,WSW,241,1.8,1.8,85,0.00,,,0.00,VWS V14.01,2013-09-03 23:21:00,
2013-09-03 19:26:00,68.2,63.5,0.00,SW,228,1.8,1.8,85,0.00,,,0.00,VWS V14.01,2013-09-03 23:26:00,
2013-09-03 19:31:00,68.4,63.7,0.00,SSW,211,1.8,1.8,85,0.00,,,0.00,VWS V14.01,2013-09-03 23:31:00,
2013-09-03 19:36:00,68.2,63.5,0.00,SW,227,1.8,4.4,85,0.00,,,0.00,VWS V14.01,2013-09-03 23:36:00,
2013-09-03 19:41:00,68.2,63.5,0.00,SW,217,1.8,4.4,85,0.00,,,0.00,VWS V14.01,2013-09-03 23:41:00,
2013-09-03 19:46:00,68.2,63.5,0.00,SSW,208,1.8,4.4,85,0.00,,,0.00,VWS V14.01,2013-09-03 23:46:00,
2013-09-03 19:51:00,68.2,63.5,0.00,South,169,1.8,4.4,85,0.00,,,0.00,VWS V14.01,2013-09-03 23:51:00,
2013-09-03 19:56:00,68.2,63.5,0.00,SW,220,1.8,4.4,85,0.00,,,0.00,VWS V14.01,2013-09-03 23:56:00,
2013-09-03 20:00:00,68.0,63.0,0.00,South,187,1.8,1.8,84,0.00,,,0.00,VWS V15.00,2013-09-04 00:00:00,
2013-09-03 20:01:00,68.2,63.5,0.00,SSW,210,1.8,1.8,85,0.00,,,0.00,VWS V14.01,2013-09-04 00:01:00,
2013-09-03 20:06:00,68.2,63.5,0.00,SSW,210,1.8,1.8,85,0.00,,,0.00,VWS V14.01,2013-09-04 00:06:00,
2013-09-03 20:11:00,68.2,63.5,0.00,SSW,210,1.8,1.8,85,0.00,,,0.00,VWS V14.01,2013-09-04 00:11:00,
2013-09-03 20:16:00,68.2,63.8,0.00,SSW,210,1.8,1.8,86,0.00,,,0.00,VWS V14.01,2013-09-04 00:16:00,
2013-09-03 20:21:00,68.2,63.8,0.00,SSW,200,1.8,1.8,86,0.00,,,0.00,VWS V14.01,2013-09-04 00:21:00,
2013-09-03 20:26:00,68.2,63.8,0.00,SSW,200,1.8,1.8,86,0.00,,,0.00,VWS V14.01,2013-09-04 00:26:00,
2013-09-03 20:31:00,68.2,63.8,0.00,SSW,200,1.8,1.8,86,0.00,,,0.00,VWS V14.01,2013-09-04 00:31:00,
2013-09-03 20:36:00,68.2,63.8,0.00,SSW,192,1.8,1.8,86,0.00,,,0.00,VWS V14.01,2013-09-04 00:36:00,
2013-09-03 20:41:00,68.4,64.0,0.00,SSW,203,1.8,1.8,86,0.00,,,0.00,VWS V14.01,2013-09-04 00:41:00,
2013-09-03 20:46:00,68.4,64.0,0.00,SSW,200,1.8,1.8,86,0.00,,,0.00,VWS V14.01,2013-09-04 00:46:00,
2013-09-03 20:51:00,68.4,64.0,0.00,SSW,200,1.8,1.8,86,0.00,,,0.00,VWS V14.01,2013-09-04 00:51:00,
2013-09-03 20:56:00,68.4,64.0,0.00,SSW,200,1.8,1.8,86,0.00,,,0.00,VWS V14.01,2013-09-04 00:56:00,
2013-09-03 21:00:00,68.2,63.5,0.00,SSW,210,1.8,4.4,85,0.00,,,0.00,VWS V15.00,2013-09-04 01:00:00,
2013-09-03 21:01:00,68.4,64.0,0.00,SSW,200,1.8,1.8,86,0.00,,,0.00,VWS V14.01,2013-09-04 01:01:00,
2013-09-03 21:06:00,68.4,64.0,0.00,West,261,1.8,1.8,86,0.00,,,0.00,VWS V14.01,2013-09-04 01:06:00,
2013-09-03 21:11:00,68.4,64.0,0.00,West,261,1.8,1.8,86,0.00,,,0.00,VWS V14.01,2013-09-04 01:11:00,
2013-09-03 21:16:00,68.5,64.5,0.00,WNW,291,1.8,1.8,87,0.00,,,0.00,VWS V14.01,2013-09-04 01:16:00,
2013-09-03 21:21:00,68.5,64.5,0.00,West,277,1.8,1.8,87,0.00,,,0.00,VWS V14.01,2013-09-04 01:21:00,
2013-09-03 21:26:00,68.7,64.7,0.00,SSE,163,1.8,1.8,87,0.00,,,0.00,VWS V14.01,2013-09-04 01:26:00,
2013-09-03 21:31:00,68.7,64.7,0.00,West,265,1.8,1.8,87,0.00,,,0.00,VWS V14.01,2013-09-04 01:31:00,
2013-09-03 21:36:00,68.7,64.7,0.00,West,275,1.8,1.8,87,0.00,,,0.00,VWS V14.01,2013-09-04 01:36:00,
2013-09-03 21:41:00,68.9,64.9,0.00,West,275,1.8,1.8,87,0.00,,,0.00,VWS V14.01,2013-09-04 01:41:00,
2013-09-03 21:46:00,68.9,64.9,0.00,WNW,302,1.8,1.8,87,0.00,,,0.00,VWS V14.01,2013-09-04 01:46:00,
2013-09-03 21:51:00,68.9,64.9,0.00,WNW,286,1.8,1.8,87,0.00,,,0.00,VWS V14.01,2013-09-04 01:51:00,
2013-09-03 21:56:00,68.9,64.9,0.00,WNW,285,1.8,1.8,87,0.00,,,0.00,VWS V14.01,2013-09-04 01:56:00,
2013-09-03 22:00:00,68.4,64.0,0.00,SSW,200,1.8,1.8,86,0.00,,,0.00,VWS V15.00,2013-09-04 02:00:00,
2013-09-03 22:01:00,68.9,64.9,0.00,WNW,289,1.8,1.8,87,0.00,,,0.00,VWS V14.01,2013-09-04 02:01:00,
2013-09-03 22:06:00,68.9,64.9,0.00,West,280,1.8,1.8,87,0.00,,,0.00,VWS V14.01,2013-09-04 02:06:00,
2013-09-03 22:11:00,68.9,64.9,0.00,WNW,287,1.8,1.8,87,0.00,,,0.00,VWS V14.01,2013-09-04 02:11:00,
2013-09-03 22:16:00,68.9,64.9,0.00,WNW,291,1.8,1.8,87,0.00,,,0.00,VWS V14.01,2013-09-04 02:16:00,
2013-09-03 22:21:00,68.9,64.9,0.00,WNW,291,1.8,1.8,87,0.00,,,0.00,VWS V14.01,2013-09-04 02:21:00,
2013-09-03 22:26:00,68.7,64.7,0.00,WNW,287,1.8,1.8,87,0.00,,,0.00,VWS V14.01,2013-09-04 02:26:00,
2013-09-03 22:31:00,68.9,65.2,0.00,WNW,287,1.8,1.8,88,0.00,,,0.00,VWS V14.01,2013-09-04 02:31:00,
2013-09-03 22:36:00,68.9,65.2,0.00,WNW,288,1.8,1.8,88,0.00,,,0.00,VWS V14.01,2013-09-04 02:36:00,
2013-09-03 22:41:00,68.9,65.2,0.00,NNW,334,1.8,1.8,88,0.00,,,0.00,VWS V14.01,2013-09-04 02:41:00,
2013-09-03 22:46:00,68.9,65.2,0.00,North,0,1.8,1.8,88,0.00,,,0.00,VWS V14.01,2013-09-04 02:46:00,
2013-09-03 22:51:00,68.9,65.2,0.00,North,0,1.8,1.8,88,0.00,,,0.00,VWS V14.01,2013-09-04 02:51:00,
2013-09-03 22:56:00,68.9,65.2,0.00,NW,320,1.8,1.8,88,0.00,,,0.00,VWS V14.01,2013-09-04 02:56:00,
2013-09-03 23:00:00,68.9,64.9,0.00,West,276,1.8,1.8,87,0.00,,,0.00,VWS V15.00,2013-09-04 03:00:00,
2013-09-03 23:01:00,68.9,65.2,0.00,NW,320,1.8,1.8,88,0.00,,,0.00,VWS V14.01,2013-09-04 03:01:00,
2013-09-03 23:06:00,68.7,65.0,0.00,WNW,296,1.8,1.8,88,0.00,,,0.00,VWS V14.01,2013-09-04 03:06:00,
2013-09-03 23:11:00,68.5,64.8,0.00,West,274,1.8,1.8,88,0.00,,,0.00,VWS V14.01,2013-09-04 03:11:00,
2013-09-03 23:16:00,68.4,64.7,0.00,NW,324,1.8,1.8,88,0.00,,,0.00,VWS V14.01,2013-09-04 03:16:00,
2013-09-03 23:21:00,68.2,64.5,0.00,West,279,1.8,1.8,88,0.00,,,0.00,VWS V14.01,2013-09-04 03:21:00,
2013-09-03 23:26:00,68.0,64.3,0.00,SW,229,1.8,6.2,88,0.00,,,0.00,VWS V14.01,2013-09-04 03:26:00,
2013-09-03 23:31:00,67.8,64.1,0.00,SW,227,1.8,6.2,88,0.00,,,0.00,VWS V14.01,2013-09-04 03:31:00,
2013-09-03 23:36:00,67.8,64.1,0.00,WSW,249,1.8,6.2,88,0.00,,,0.00,VWS V14.01,2013-09-04 03:36:00,
2013-09-03 23:41:00,67.6,64.0,0.00,NNW,336,1.8,6.2,88,0.00,,,0.00,VWS V14.01,2013-09-04 03:41:00,
2013-09-03 23:46:00,67.5,63.8,0.00,NNW,343,1.8,6.2,88,0.00,,,0.00,VWS V14.01,2013-09-04 03:46:00,
2013-09-03 23:51:00,67.3,63.6,0.00,WSW,258,1.8,6.2,88,0.00,,,0.00,VWS V14.01,2013-09-04 03:51:00,
2013-09-03 23:56:00,67.1,63.4,0.00,NNE,18,1.8,6.2,88,0.00,,,0.00,VWS V14.01,2013-09-04 03:56:00,